Flight Track Log - Related Links

Times and Time Zones

All times are in EDT time to prevent confusion due to time zone crossing. See the RPA3242 flight status page for this flight to view local times or setup timezone preferences in your user account.

Time Position Orientation Groundspeed Altitude Reporting Facility
EDT Latitude Longitude Course Direction KTS MPH feet Rate Location/Type
Wed 10:31:00 PM 39.7872 -74.7192 105° East  Level FlightAware Approximate
Wed 10:32:00 PM 39.8365 -74.6469 37° Northeast  Level FlightAware Approximate
Wed 10:33:00 PM 39.9017 -74.5817 38° Northeast  Level FlightAware Approximate
Wed 10:34:00 PM 39.9704 -74.5296 37° Northeast  Level FlightAware Approximate
Wed 10:35:00 PM 40.0356 -74.4644 37° Northeast  Level FlightAware Approximate
Wed 10:36:00 PM 40.1009 -74.3991 37° Northeast  Level FlightAware Approximate
Wed 10:37:00 PM 40.1664 -74.3340 37° Northeast  Level FlightAware Approximate
Wed 10:38:00 PM 40.2318 -74.2688 37° Northeast  Level FlightAware Approximate
Wed 10:39:00 PM 40.2972 -74.2034 37° Northeast  Level FlightAware Approximate
Wed 10:40:00 PM 40.3626 -74.1380 37° Northeast  Level FlightAware Approximate
Wed 10:41:00 PM 40.4279 -74.0724 37° Northeast  Level FlightAware Approximate
Wed 10:42:00 PM 40.4977 -74.0171 22° Northeast  Level FlightAware Approximate
Wed 10:43:00 PM 40.5741 -73.9770 22° Northeast  Level FlightAware Approximate
Wed 10:44:00 PM 40.6504 -73.9368 22° Northeast  Level FlightAware Approximate
Wed 10:45:00 PM 40.7268 -73.8966 22° Northeast  Level FlightAware Approximate
Wed 10:46:00 PM 40.7983 -73.8467 45° Northeast  Level FlightAware Approximate
Wed 10:47:00 PM 40.8572 -73.7709 43° Northeast  Level FlightAware Approximate
Wed 10:48:00 PM 40.9176 -73.6971 43° Northeast  Level FlightAware Approximate
Wed 10:49:00 PM 40.9779 -73.6231 43° Northeast  Level FlightAware Approximate
Wed 10:50:00 PM 41.0382 -73.5490 43° Northeast  Level FlightAware Approximate
Wed 10:51:00 PM 41.0984 -73.4747 43° Northeast  Level FlightAware Approximate
Wed 10:52:00 PM 41.1586 -73.4004 43° Northeast  Level FlightAware Approximate
Wed 10:53:00 PM 41.2188 -73.3258 43° Northeast  Level FlightAware Approximate
Wed 10:54:00 PM 41.2788 -73.2512 43° Northeast  Level FlightAware Approximate
Wed 10:55:00 PM 41.3405 -73.1869 339° North  Level FlightAware Approximate
Wed 10:56:00 PM 41.4175 -73.2253 339° North  Level FlightAware Approximate
Wed 10:57:00 PM 41.4945 -73.2639 339° North  Level FlightAware Approximate
Wed 10:58:00 PM 41.5743 -73.2884 334° Northwest  Level FlightAware Approximate
Wed 10:59:00 PM 41.6505 -73.3279 346° North  Level FlightAware Approximate
Wed 11:00:00 PM 41.7291 -73.3600 342° North  Level FlightAware Approximate
Wed 11:01:00 PM 41.8074 -73.3936 342° North  Level FlightAware Approximate
Wed 11:02:00 PM 41.8858 -73.4272 342° North  Level FlightAware Approximate
Wed 11:03:00 PM 41.9648 -73.4576 344° North  Level FlightAware Approximate
Wed 11:04:00 PM 42.0437 -73.4885 340° North  Level FlightAware Approximate
Wed 11:05:00 PM 42.1220 -73.5130 North  Level FlightAware Approximate
Wed 11:06:00 PM 42.2036 -73.4988 14° North  Level FlightAware Approximate
Wed 11:07:00 PM 42.2842 -73.4801 North  Level FlightAware Approximate
Wed 11:08:00 PM 42.3657 -73.4653 North  Level FlightAware Approximate
Wed 11:09:00 PM 42.4472 -73.4505 North  Level FlightAware Approximate
Wed 11:10:00 PM 42.5095 -73.4809 312° West  Level FlightAware Approximate
Wed 11:11:00 PM 42.5710 -73.5543 324° Northwest  Level FlightAware Approximate

Login

Don't have an account? Register now (free) for customized features, flight alerts, and more!